Time;durP1;ratioP1;P1;durP2;ratioP2;P2;SDS_P1;SDS_P2;PMS_P1;PMS_P2;Temp;Humidity;BMP_temperature;BMP_pressure;BME280_temperature;BME280_humidity;BME280_pressure;Samples;Min_cycle;Max_cycle;Signal;HPM_P1;HPM_P2
2023/10/12 00:01:59;;;;;;;21.90;13.60;;;;;;;15.98;100.00;101205.09;6216016;23;20001;-79
2023/10/12 00:04:35;;;;;;;20.58;13.70;;;;;;;15.87;100.00;101179.09;6215617;23;20427;-76
2023/10/12 00:07:11;;;;;;;20.45;13.98;;;;;;;15.99;100.00;101191.13;6215657;23;20083;-75
2023/10/12 00:09:37;;;;;;;19.30;13.55;;;;;;;15.97;100.00;101198.22;6215832;23;20527;-74
2023/10/12 00:12:07;;;;;;;20.60;14.05;;;;;;;15.88;100.00;101196.34;6215719;23;20032;-80
2023/10/12 00:14:34;;;;;;;23.17;15.93;;;;;;;15.87;100.00;101201.69;6215809;23;20083;-76
2023/10/12 00:17:00;;;;;;;26.55;15.90;;;;;;;15.97;100.00;101215.66;6215985;23;20246;-78
2023/10/12 00:19:26;;;;;;;25.45;16.10;;;;;;;15.97;100.00;101219.06;6215275;23;20036;-79
2023/10/12 00:21:59;;;;;;;23.50;16.17;;;;;;;15.97;100.00;101208.66;6215807;23;20050;-80
2023/10/12 00:24:24;;;;;;;27.25;15.55;;;;;;;15.97;100.00;101210.44;6215938;23;20012;-78
2023/10/12 00:26:50;;;;;;;22.98;16.55;;;;;;;15.95;100.00;101210.56;6215619;23;20005;-77
2023/10/12 00:29:15;;;;;;;26.98;16.95;;;;;;;15.96;100.00;101216.59;6215566;23;20087;-78
2023/10/12 00:31:42;;;;;;;23.15;15.57;;;;;;;15.86;100.00;101202.66;6215602;23;20411;-80
2023/10/12 00:34:08;;;;;;;25.50;17.00;;;;;;;15.71;100.00;101183.84;6215284;23;20745;-79
2023/10/12 00:36:37;;;;;;;25.23;17.05;;;;;;;15.90;100.00;101219.69;6215616;23;20005;-78
2023/10/12 00:39:09;;;;;;;27.55;17.98;;;;;;;15.85;100.00;101209.63;6215503;23;20011;-75
2023/10/12 00:41:36;;;;;;;26.13;17.45;;;;;;;15.74;100.00;101204.44;6215304;23;20009;-79
2023/10/12 00:46:40;;;;;;;25.63;16.77;;;;;;;15.74;100.00;101226.09;6225956;23;20034;-78
2023/10/12 00:49:22;;;;;;;29.70;18.00;;;;;;;15.79;100.00;101246.56;6215296;23;20004;-80
2023/10/12 00:51:50;;;;;;;28.02;18.05;;;;;;;15.76;100.00;101245.03;6215599;23;20000;-81
2023/10/12 00:54:27;;;;;;;27.90;17.20;;;;;;;15.72;100.00;101243.59;6215917;23;20001;-80
2023/10/12 00:56:57;;;;;;;30.20;18.25;;;;;;;15.53;100.00;101216.47;6215745;23;20076;-80
2023/10/12 00:59:23;;;;;;;29.13;18.83;;;;;;;15.68;100.00;101257.00;6215432;23;20042;-79
2023/10/12 01:01:53;;;;;;;27.45;20.08;;;;;;;15.60;100.00;101244.56;6215575;23;20004;-79
2023/10/12 01:04:18;;;;;;;26.20;19.67;;;;;;;15.62;100.00;101253.06;6214984;23;20004;-73
2023/10/12 01:06:50;;;;;;;32.78;19.48;;;;;;;15.54;100.00;101236.38;6215518;23;20363;-80
2023/10/12 01:09:18;;;;;;;30.60;20.38;;;;;;;15.54;100.00;101246.81;6215480;23;19997;-78
2023/10/12 01:11:58;;;;;;;27.67;18.73;;;;;;;15.55;100.00;101248.44;6215296;23;20089;-80
2023/10/12 01:14:30;;;;;;;30.20;18.75;;;;;;;15.50;100.00;101239.19;6215359;23;20320;-74
2023/10/12 01:17:03;;;;;;;30.77;20.38;;;;;;;15.38;100.00;101224.53;6214920;23;19996;-77
2023/10/12 01:19:33;;;;;;;29.35;21.13;;;;;;;15.48;100.00;101248.09;6214919;23;20339;-79
2023/10/12 01:22:12;;;;;;;31.35;19.95;;;;;;;15.34;100.00;101230.94;6214892;23;20008;-77
2023/10/12 01:24:43;;;;;;;30.02;20.65;;;;;;;15.37;100.00;101250.69;6215136;23;20001;-76
2023/10/12 01:27:12;;;;;;;33.95;20.35;;;;;;;15.41;100.00;101254.69;6189973;23;20009;-80
2023/10/12 01:29:38;;;;;;;32.05;20.45;;;;;;;15.39;100.00;101256.59;6214544;23;20435;-79
2023/10/12 01:34:39;;;;;;;33.38;19.35;;;;;;;15.41;100.00;101252.09;6220687;23;20016;-80
2023/10/12 01:37:20;;;;;;;30.77;19.38;;;;;;;15.21;100.00;101215.41;6214858;23;20079;-79
2023/10/12 01:39:56;;;;;;;33.17;19.90;;;;;;;15.38;100.00;101224.53;6214994;23;20012;-74
2023/10/12 01:42:24;;;;;;;30.80;21.00;;;;;;;15.36;100.00;101210.00;6215089;23;20000;-79
2023/10/12 01:44:51;;;;;;;31.40;21.20;;;;;;;15.27;100.00;101190.72;6214875;23;20000;-77
2023/10/12 01:47:16;;;;;;;28.50;20.67;;;;;;;15.33;100.00;101199.81;6215104;23;20070;-77
2023/10/12 01:49:45;;;;;;;28.20;20.83;;;;;;;15.33;100.00;101194.59;6214611;23;20419;-79
2023/10/12 01:52:11;;;;;;;33.70;21.50;;;;;;;15.23;100.00;101185.84;6214704;23;20000;-78
2023/10/12 01:54:42;;;;;;;29.05;21.20;;;;;;;15.19;100.00;101186.09;6214793;23;20012;-76
2023/10/12 01:57:07;;;;;;;;;;;;;;;15.30;100.00;101203.47;6215271;23;20035;-77
2023/10/12 01:59:33;;;;;;;31.63;22.25;;;;;;;15.28;100.00;101197.56;6214481;23;19915;-75
2023/10/12 02:02:13;;;;;;;34.80;22.85;;;;;;;14.99;100.00;101158.19;6214933;23;20415;-78
2023/10/12 02:04:40;;;;;;;38.60;24.08;;;;;;;15.20;100.00;101195.53;6214906;23;20431;-81
2023/10/12 02:07:06;;;;;;;32.88;24.27;;;;;;;15.19;100.00;101199.09;6214633;23;20491;-79
2023/10/12 02:09:34;;;;;;;31.48;23.45;;;;;;;15.08;100.00;101201.69;6214628;23;20025;-80
2023/10/12 02:12:09;;;;;;;34.08;24.25;;;;;;;15.14;100.00;101213.38;6214378;23;20004;-79
2023/10/12 02:14:39;;;;;;;35.15;24.52;;;;;;;14.97;100.00;101187.84;6214507;23;20055;-80
2023/10/12 02:17:05;;;;;;;36.17;26.20;;;;;;;15.03;100.00;101197.78;6214473;23;20083;-79
2023/10/12 02:20:11;;;;;;;37.67;27.48;;;;;;;15.05;100.00;101193.31;6214328;23;20004;-77
2023/10/12 02:22:28;;;;;;;34.50;25.25;;;;;;;15.08;100.00;101201.69;6210273;23;20079;-81
2023/10/12 02:27:41;;;;;;;37.67;25.92;;;;;;;15.10;100.00;101215.41;6214344;23;20016;-79
2023/10/12 02:30:13;;;;;;;41.15;26.33;;;;;;;15.00;100.00;101209.25;6214488;23;20395;-79
2023/10/12 02:32:46;;;;;;;;;;;;;;;15.10;100.00;101231.00;6213470;23;20339;-80
2023/10/12 02:35:13;;;;;;;35.28;25.60;;;;;;;15.04;100.00;101212.44;6214301;23;19989;-81
2023/10/12 02:37:39;;;;;;;38.35;27.40;;;;;;;15.04;100.00;101212.44;6214320;23;20009;-77
2023/10/12 02:40:12;;;;;;;37.95;26.10;;;;;;;15.03;100.00;101196.00;6214239;23;20012;-78
2023/10/12 02:42:41;;;;;;;35.90;25.88;;;;;;;15.01;100.00;101173.66;6214525;23;20005;-79
2023/10/12 02:47:41;;;;;;;;;;;;;;;15.04;100.00;101196.81;6215336;23;20016;-79
2023/10/12 02:50:20;;;;;;;38.05;26.48;;;;;;;14.89;100.00;101181.44;6214269;23;19949;-80
2023/10/12 02:52:52;;;;;;;38.85;27.55;;;;;;;14.98;100.00;101185.13;6214499;23;20012;-79
2023/10/12 02:58:07;;;;;;;35.45;26.80;;;;;;;14.98;100.00;101197.31;6224977;23;20016;-74
2023/10/12 03:03:08;;;;;;;37.00;27.25;;;;;;;14.93;100.00;101187.22;6225298;23;20497;-80
2023/10/12 03:05:45;;;;;;;38.63;27.67;;;;;;;14.90;100.00;101177.91;6216125;23;20043;-80
2023/10/12 03:08:15;;;;;;;38.15;28.58;;;;;;;14.70;100.00;101123.16;6215938;23;20008;-79
2023/10/12 03:11:27;;;;;;;39.05;27.05;;;;;;;14.91;100.00;101152.72;6216427;23;20015;-80
2023/10/12 03:13:37;;;;;;;40.03;28.02;;;;;;;14.89;100.00;101154.63;6203917;23;20343;-80
2023/10/12 03:18:44;;;;;;;38.42;28.58;;;;;;;14.85;100.00;101161.00;6216340;23;20048;-78
2023/10/12 03:21:13;;;;;;;37.65;28.00;;;;;;;14.84;100.00;101186.16;6215885;23;20035;-78
2023/10/12 03:23:46;;;;;;;40.47;28.77;;;;;;;14.84;100.00;101177.53;6215669;23;20418;-79
2023/10/12 03:26:24;;;;;;;38.03;28.45;;;;;;;14.79;100.00;101179.66;6216134;23;20362;-79
2023/10/12 03:28:54;;;;;;;42.30;29.38;;;;;;;14.71;100.00;101166.41;6216223;23;20410;-80
2023/10/12 03:31:34;;;;;;;40.42;28.95;;;;;;;14.65;100.00;101167.69;6215808;23;20427;-79
2023/10/12 03:34:00;;;;;;;37.80;28.92;;;;;;;14.71;100.00;101189.78;6216046;23;20335;-80
2023/10/12 03:36:32;;;;;;;37.55;27.73;;;;;;;14.54;100.00;101165.88;6215709;23;20011;-79
2023/10/12 03:44:41;;;;;;;39.50;27.45;;;;;;;14.54;100.00;101165.88;6095328;23;20006;-78
2023/10/12 03:47:52;;;;;;;36.47;25.90;;;;;;;14.65;100.00;101188.50;6094717;23;20016;-81
2023/10/12 03:50:05;;;;;;;33.53;24.67;;;;;;;14.67;100.00;101201.38;6091943;23;20014;-80
2023/10/12 03:52:40;;;;;;;36.58;26.38;;;;;;;14.51;100.00;101186.06;6094419;23;20574;-80
2023/10/12 04:02:45;;;;;;;33.22;24.02;;;;;;;14.59;100.00;101215.75;6094637;23;20551;-79
2023/10/12 04:13:08;;;;;;;30.65;23.38;;;;;;;14.52;100.00;101224.09;6094513;23;20138;-73
2023/10/12 04:18:42;;;;;;;30.98;22.58;;;;;;;14.53;100.00;101220.56;6009064;23;20016;-73
2023/10/12 04:21:10;;;;;;;28.52;21.98;;;;;;;14.55;100.00;101216.94;6058501;23;20408;-73
2023/10/12 04:28:38;;;;;;;33.10;21.48;;;;;;;14.55;100.00;101210.88;6132442;23;20010;-80
2023/10/12 04:41:46;;;;;;;31.42;21.83;;;;;;;14.51;100.00;101215.50;6017850;23;20091;-79
2023/10/12 04:44:35;;;;;;;30.52;22.58;;;;;;;14.54;100.00;101233.44;6008579;23;20070;-80
2023/10/12 04:47:15;;;;;;;29.05;20.85;;;;;;;14.55;100.00;101227.34;6008429;23;20008;-76
2023/10/12 04:54:49;;;;;;;32.20;22.15;;;;;;;14.56;100.00;101226.38;6094077;23;20489;-74
2023/10/12 04:57:15;;;;;;;30.45;21.55;;;;;;;14.47;100.00;101219.25;6094145;23;20003;-76
2023/10/12 05:04:48;;;;;;;31.08;22.02;;;;;;;14.52;100.00;101227.53;6093975;23;20018;-78
2023/10/12 05:09:49;;;;;;;30.00;21.33;;;;;;;14.60;100.00;101246.00;6103778;23;20326;-80
2023/10/12 05:12:28;;;;;;;28.13;21.52;;;;;;;14.60;100.00;101256.41;6163269;23;20015;-78
2023/10/12 05:14:55;;;;;;;29.02;22.00;;;;;;;14.62;100.00;101259.72;6214919;23;20083;-76
2023/10/12 05:17:23;;;;;;;29.83;21.90;;;;;;;14.62;100.00;101261.47;6215195;23;20009;-77
2023/10/12 05:19:52;;;;;;;30.95;22.15;;;;;;;14.62;100.00;101257.09;6215061;23;20039;-77
2023/10/12 05:22:18;;;;;;;29.60;21.95;;;;;;;14.63;100.00;101258.75;6214720;23;20035;-73
2023/10/12 05:24:43;;;;;;;29.05;21.05;;;;;;;14.63;100.00;101253.56;6214824;23;20004;-77
2023/10/12 05:27:09;;;;;;;29.83;20.60;;;;;;;14.64;100.00;101263.03;6215061;23;20050;-79
2023/10/12 05:29:45;;;;;;;29.80;21.75;;;;;;;14.64;100.00;101270.81;6214447;23;20006;-77
2023/10/12 05:32:24;;;;;;;29.35;21.15;;;;;;;14.64;100.00;101265.63;6214995;23;20039;-77
2023/10/12 05:34:52;;;;;;;30.48;20.77;;;;;;;14.66;100.00;101267.31;6215091;23;20020;-77
2023/10/12 05:37:24;;;;;;;28.15;21.15;;;;;;;14.65;100.00;101269.06;6215004;23;20013;-79
2023/10/12 05:39:56;;;;;;;28.13;20.05;;;;;;;14.66;100.00;101272.50;6214701;23;20482;-73
2023/10/12 05:42:22;;;;;;;28.35;20.80;;;;;;;14.64;100.00;101272.59;6214550;23;20370;-79
2023/10/12 05:44:53;;;;;;;25.10;19.20;;;;;;;14.66;100.00;101275.94;6215256;23;20004;-79
2023/10/12 05:47:29;;;;;;;29.10;20.45;;;;;;;14.49;100.00;101239.94;6215011;23;20001;-78
2023/10/12 05:49:57;;;;;;;29.25;19.90;;;;;;;14.63;100.00;101276.13;6214732;23;20031;-79
2023/10/12 05:52:22;;;;;;;26.63;20.08;;;;;;;14.63;100.00;101282.16;6214980;23;20415;-77
2023/10/12 05:54:51;;;;;;;30.67;20.40;;;;;;;14.46;100.00;101255.75;6214831;23;20005;-80
2023/10/12 05:57:19;;;;;;;26.73;20.08;;;;;;;14.58;100.00;101289.47;6214355;23;20005;-77
2023/10/12 05:59:48;;;;;;;25.45;18.77;;;;;;;14.41;100.00;101261.25;6214767;23;20012;-77
2023/10/12 06:02:17;;;;;;;30.05;19.70;;;;;;;14.64;100.00;101295.97;6214841;23;20326;-78
2023/10/12 06:04:43;;;;;;;25.88;18.75;;;;;;;14.63;100.00;101299.53;6215098;23;20748;-74
2023/10/12 06:07:09;;;;;;;25.17;18.85;;;;;;;14.54;100.00;101284.59;6214778;23;20004;-81
2023/10/12 06:09:37;;;;;;;23.98;18.88;;;;;;;14.61;100.00;101299.63;6214274;23;20005;-79
2023/10/12 06:12:06;;;;;;;26.40;17.65;;;;;;;14.59;100.00;101303.28;6214508;23;20001;-80
2023/10/12 06:14:36;;;;;;;24.85;17.52;;;;;;;14.59;100.00;101309.31;6214628;23;20373;-78
2023/10/12 06:17:03;;;;;;;25.95;17.83;;;;;;;14.59;100.00;101309.31;6214486;23;20011;-80
2023/10/12 06:19:36;;;;;;;25.27;16.60;;;;;;;14.43;100.00;101282.75;6212775;23;20012;-76
2023/10/12 06:22:13;;;;;;;23.77;16.80;;;;;;;14.58;100.00;101314.63;6188917;23;20004;-80
2023/10/12 06:24:44;;;;;;;24.88;17.02;;;;;;;14.54;100.00;101307.97;6214185;23;20051;-77
2023/10/12 06:27:30;;;;;;;23.25;17.63;;;;;;;14.57;100.00;101308.63;6212886;23;20331;-76
2023/10/12 06:29:55;;;;;;;23.83;17.42;;;;;;;14.59;100.00;101303.28;6213540;23;20088;-72
2023/10/12 06:32:31;;;;;;;22.60;16.52;;;;;;;14.59;100.00;101306.72;6214670;23;20084;-77
2023/10/12 06:45:48;;;;;;;23.50;16.65;;;;;;;14.62;100.00;101314.28;6226526;23;20392;-72
2023/10/12 06:48:40;;;;;;;21.75;15.70;;;;;;;14.64;100.00;101327.16;6216411;23;20075;-77
2023/10/12 06:51:07;;;;;;;22.25;15.90;;;;;;;14.46;100.00;101292.97;6216546;23;20381;-77
2023/10/12 06:53:34;;;;;;;22.05;16.80;;;;;;;14.64;100.00;101322.81;6216207;23;20000;-78
2023/10/12 06:56:24;;;;;;;20.95;16.05;;;;;;;14.64;100.00;101328.00;6216117;23;20076;-77
2023/10/12 07:01:38;;;;;;;22.73;15.88;;;;;;;14.70;100.00;101333.72;6216415;23;20103;-78
2023/10/12 07:04:27;;;;;;;22.30;15.57;;;;;;;14.72;100.00;101335.25;6214784;23;20012;-78
2023/10/12 07:06:57;;;;;;;23.75;16.17;;;;;;;14.74;100.00;101335.13;6215741;23;20065;-79
2023/10/12 07:12:04;;;;;;;24.80;16.00;;;;;;;14.55;100.00;101313.09;6216613;23;20008;-78
2023/10/12 07:14:36;;;;;;;26.27;16.80;;;;;;;14.76;100.00;101351.47;6215995;23;20008;-78
2023/10/12 07:17:02;;;;;;;26.13;16.75;;;;;;;14.78;100.00;101357.41;6216321;23;20007;-79
2023/10/12 07:19:27;;;;;;;23.85;16.15;;;;;;;14.63;100.00;101338.50;6216099;23;20032;-78
2023/10/12 07:21:55;;;;;;;22.48;16.27;;;;;;;14.70;100.00;101339.75;6216423;23;20020;-78
2023/10/12 07:24:22;;;;;;;21.98;15.93;;;;;;;14.80;100.00;101356.34;6216177;23;20005;-78
2023/10/12 07:26:48;;;;;;;21.60;15.73;;;;;;;14.82;100.00;101359.66;6216289;23;20008;-78
2023/10/12 07:29:19;;;;;;;23.05;15.90;;;;;;;14.73;100.00;101346.47;6216324;23;20717;-76
2023/10/12 07:31:48;;;;;;;24.30;15.82;;;;;;;14.83;100.00;101368.28;6215861;23;20032;-78
2023/10/12 07:34:15;;;;;;;26.33;17.00;;;;;;;14.83;100.00;101371.69;6216381;23;20327;-78
2023/10/12 07:42:12;;;;;;;;;;;;;;;15.01;100.00;101377.34;6124387;23;20010;-73
2023/10/12 07:44:54;;;;;;;22.00;16.90;;;;;;;14.98;100.00;101371.56;6123996;23;19913;-74
2023/10/12 07:47:25;;;;;;;21.33;16.05;;;;;;;14.97;100.00;101378.53;6124118;23;20013;-79
2023/10/12 07:49:51;;;;;;;23.73;15.52;;;;;;;14.97;100.00;101378.53;6123974;23;20006;-73
2023/10/12 07:57:19;;;;;;;25.73;15.50;;;;;;;15.00;100.00;101386.09;6123916;23;20009;-76
2023/10/12 08:02:42;;;;;;;22.70;15.90;;;;;;;14.98;100.00;101390.59;6132427;23;20017;-79
2023/10/12 08:21:17;;;;;;;21.27;15.88;;;;;;;14.99;100.00;101374.03;6215663;23;20019;-71
2023/10/12 08:23:49;;;;;;;22.77;16.58;;;;;;;14.97;100.00;101365.53;6215975;23;20075;-76
2023/10/12 08:26:33;;;;;;;23.77;15.13;;;;;;;14.99;100.00;101365.41;6188584;23;20324;-73
2023/10/12 08:28:59;;;;;;;29.40;15.75;;;;;;;15.00;100.00;101364.47;6193401;23;20012;-76
2023/10/12 08:31:28;;;;;;;21.65;15.98;;;;;;;15.07;100.00;101366.50;6215380;23;20013;-78
2023/10/12 08:34:03;;;;;;;22.52;15.30;;;;;;;15.16;100.00;101389.25;6215630;23;20067;-77
2023/10/12 08:36:29;;;;;;;23.83;15.93;;;;;;;15.12;100.00;101385.19;6215500;23;20364;-79
2023/10/12 08:39:07;;;;;;;22.83;15.73;;;;;;;15.13;100.00;101378.22;6215238;23;20005;-75
2023/10/12 08:44:19;;;;;;;21.70;15.18;;;;;;;15.41;100.00;101392.63;6215358;23;20100;-78
2023/10/12 08:46:56;;;;;;;22.30;15.10;;;;;;;15.43;100.00;101401.16;6215498;23;20051;-80
2023/10/12 08:49:35;;;;;;;22.83;15.43;;;;;;;15.21;100.00;101379.31;6215520;23;20000;-78
2023/10/12 08:52:20;;;;;;;23.48;15.27;;;;;;;15.32;100.00;101401.13;6215453;23;20005;-78
2023/10/12 08:54:53;;;;;;;23.02;14.88;;;;;;;15.34;100.00;101409.63;6215596;23;20445;-77
2023/10/12 08:57:35;;;;;;;21.77;14.95;;;;;;;15.35;100.00;101417.34;6215177;23;20330;-76
2023/10/12 09:03:00;;;;;;;21.35;15.30;;;;;;;15.43;100.00;101408.94;6225349;23;20013;-78
2023/10/12 09:05:30;;;;;;;22.67;15.95;;;;;;;15.43;100.00;101398.53;6215582;23;20072;-78
2023/10/12 09:13:30;;;;;;;21.92;16.13;;;;;;;15.63;100.00;101384.06;6215205;23;20071;-80
2023/10/12 09:15:57;;;;;;;25.85;17.27;;;;;;;15.69;100.00;101383.63;6213199;23;20331;-76
2023/10/12 09:18:24;;;;;;;24.48;16.80;;;;;;;15.80;100.00;101391.44;6215134;23;20415;-73
2023/10/12 09:23:28;;;;;;;21.88;15.85;;;;;;;15.84;100.00;101400.69;6215502;23;20017;-78
2023/10/12 09:28:41;;;;;;;25.25;16.92;;;;;;;15.91;100.00;101419.28;6215192;23;20092;-76
2023/10/12 09:31:09;;;;;;;20.63;16.00;;;;;;;16.00;100.00;101421.19;6214853;23;20035;-80
2023/10/12 09:33:47;;;;;;;24.13;16.70;;;;;;;15.88;100.00;101380.44;6214815;23;20004;-80
2023/10/12 09:36:13;;;;;;;23.33;16.25;;;;;;;16.18;100.00;101404.13;6215365;23;20087;-79
2023/10/12 09:38:38;;;;;;;24.45;16.25;;;;;;;16.28;100.00;101402.47;6214716;23;20009;-73
2023/10/12 09:41:08;;;;;;;22.60;16.10;;;;;;;16.41;100.00;101391.09;6214770;23;20012;-77
2023/10/12 09:43:39;;;;;;;22.23;16.52;;;;;;;16.49;100.00;101389.53;6214664;23;20019;-77
2023/10/12 09:46:08;;;;;;;19.60;15.52;;;;;;;16.57;100.00;101386.34;6214686;23;20051;-77
2023/10/12 09:48:39;;;;;;;20.65;15.02;;;;;;;16.56;100.00;101374.25;6214974;23;20008;-72
2023/10/12 09:51:15;;;;;;;24.58;15.15;;;;;;;16.79;100.00;101391.53;6212577;23;20074;-72
2023/10/12 09:54:09;;;;;;;19.17;14.13;;;;;;;16.94;100.00;101393.88;6214761;23;20004;-77
2023/10/12 09:56:46;;;;;;;19.55;14.90;;;;;;;16.96;100.00;101390.16;6214247;23;20423;-77
2023/10/12 09:59:17;;;;;;;19.05;14.20;;;;;;;16.79;100.00;101356.78;6214889;23;20005;-78
2023/10/12 10:07:14;;;;;;;22.23;14.45;;;;;;;16.74;100.00;101356.34;6225364;23;20674;-79
2023/10/12 10:09:46;;;;;;;19.33;14.55;;;;;;;16.74;100.00;101383.25;6212396;23;20108;-75
2023/10/12 10:12:17;;;;;;;20.33;15.23;;;;;;;16.63;100.00;101380.63;6215339;23;20039;-75
2023/10/12 10:14:45;;;;;;;22.48;14.73;;;;;;;16.50;100.00;101378.16;6216821;23;20079;-82
2023/10/12 10:17:14;;;;;;;22.60;14.98;;;;;;;16.40;100.00;101371.19;6216823;23;20047;-80
2023/10/12 10:19:43;;;;;;;18.55;14.68;;;;;;;16.27;100.00;101372.16;6216650;23;20004;-76
2023/10/12 10:22:13;;;;;;;20.60;14.77;;;;;;;16.24;100.00;101366.38;6189476;23;20042;-77
2023/10/12 10:24:46;;;;;;;20.52;15.13;;;;;;;16.23;100.00;101365.53;6216944;23;20028;-77
2023/10/12 10:27:14;;;;;;;18.17;14.30;;;;;;;16.11;100.00;101347.41;6216614;23;20027;-76
2023/10/12 10:29:53;;;;;;;20.92;14.82;;;;;;;16.21;100.00;101361.38;6216380;23;20001;-78
2023/10/12 10:32:37;;;;;;;21.70;14.75;;;;;;;16.18;100.00;101346.81;6216632;23;20005;-77
2023/10/12 10:35:13;;;;;;;19.77;15.35;;;;;;;16.24;100.00;101353.34;6216671;23;20327;-78
2023/10/12 10:37:58;;;;;;;23.20;16.77;;;;;;;16.14;100.00;101337.59;6215326;23;20011;-75
2023/10/12 10:40:44;;;;;;;23.98;17.88;;;;;;;16.23;100.00;101336.06;6217792;23;20319;-75
2023/10/12 10:43:15;;;;;;;23.85;17.27;;;;;;;16.39;100.00;101353.88;6216775;23;20010;-77
2023/10/12 10:45:54;;;;;;;22.52;16.90;;;;;;;16.48;100.00;101340.13;6216636;23;20000;-77
2023/10/12 10:48:19;;;;;;;24.08;18.55;;;;;;;16.53;100.00;101344.03;6216604;23;20000;-80
2023/10/12 10:50:51;;;;;;;23.60;18.15;;;;;;;16.63;100.00;101351.97;6216403;23;20008;-81
2023/10/12 10:53:20;;;;;;;20.70;15.77;;;;;;;16.50;100.00;101309.53;6216967;23;20000;-77
2023/10/12 10:55:47;;;;;;;23.95;15.88;;;;;;;16.85;100.00;101351.91;6215795;23;20008;-79
2023/10/12 10:58:14;;;;;;;18.90;15.60;;;;;;;17.00;100.00;101354.22;6216491;23;20012;-74
2023/10/12 11:00:45;;;;;;;21.40;14.35;;;;;;;17.11;100.00;101343.75;6216640;23;20012;-75
2023/10/12 11:03:18;;;;;;;20.58;14.23;;;;;;;17.30;100.00;101358.69;6216400;23;20431;-73
2023/10/12 11:05:46;;;;;;;18.20;14.25;;;;;;;17.38;100.00;101346.66;6216256;23;20029;-78
2023/10/12 11:08:26;;;;;;;21.05;14.00;;;;;;;17.36;100.00;101339.91;6216583;23;20004;-74
2023/10/12 11:11:25;;;;;;;19.27;13.63;;;;;;;17.27;100.00;101341.50;6216531;23;20005;-75
2023/10/12 11:13:44;;;;;;;20.60;12.50;;;;;;;17.34;100.00;101345.28;6214052;23;20009;-79
2023/10/12 11:18:55;;;;;;;20.98;13.65;;;;;;;17.31;100.00;101340.31;6215977;23;20358;-76
2023/10/12 11:21:21;;;;;;;17.85;12.15;;;;;;;17.13;100.00;101324.41;6216267;23;20001;-75
2023/10/12 11:23:50;;;;;;;16.30;12.57;;;;;;;17.19;100.00;101334.31;6215964;23;20011;-75
2023/10/12 11:26:19;;;;;;;21.52;14.30;;;;;;;17.23;100.00;101347.94;6216366;23;20431;-77
2023/10/12 11:28:48;;;;;;;19.55;12.90;;;;;;;17.19;100.00;101341.31;6216078;23;20024;-75
2023/10/12 11:31:20;;;;;;;18.88;12.88;;;;;;;17.15;100.00;101337.31;6216021;23;20094;-78
2023/10/12 11:33:53;;;;;;;21.23;14.27;;;;;;;17.15;100.00;101345.13;6215997;23;20011;-77
2023/10/12 11:36:25;;;;;;;23.98;14.23;;;;;;;17.12;100.00;101330.56;6216145;23;20008;-79
2023/10/12 11:39:01;;;;;;;17.80;13.32;;;;;;;17.10;100.00;101310.75;6216114;23;20005;-76
2023/10/12 11:41:27;;;;;;;17.90;12.73;;;;;;;17.20;100.00;101309.03;6216485;23;20009;-81
2023/10/12 11:43:54;;;;;;;19.52;14.45;;;;;;;17.42;100.00;101327.19;6215868;23;20433;-80
2023/10/12 11:46:23;;;;;;;16.85;13.30;;;;;;;17.49;100.00;101328.31;6215927;23;20005;-74
2023/10/12 11:49:03;;;;;;;20.52;14.55;;;;;;;17.57;100.00;101324.22;6216103;23;20066;-75
2023/10/12 11:51:28;;;;;;;19.63;13.38;;;;;;;17.52;100.00;101329.03;6216123;23;20005;-80
2023/10/12 11:53:54;;;;;;;18.52;13.60;;;;;;;17.42;100.00;101321.97;6215792;23;20025;-81
2023/10/12 11:56:22;;;;;;;17.33;12.70;;;;;;;17.40;100.00;101329.09;6215791;23;20311;-78
2023/10/12 11:58:55;;;;;;;18.13;12.90;;;;;;;17.19;100.00;101300.38;6215968;23;20009;-81
2023/10/12 12:01:22;;;;;;;16.67;11.90;;;;;;;17.31;100.00;101316.81;6215595;23;20088;-79
2023/10/12 12:03:48;;;;;;;18.17;12.07;;;;;;;17.31;100.00;101316.81;6216218;23;20008;-74
2023/10/12 12:06:20;;;;;;;17.33;11.23;;;;;;;17.22;100.00;101304.53;6215889;23;20008;-76
2023/10/12 12:08:47;;;;;;;19.45;11.85;;;;;;;17.38;100.00;101332.78;6215886;23;20042;-76
2023/10/12 12:11:15;;;;;;;17.38;11.40;;;;;;;17.26;100.00;101311.13;6216007;23;20272;-78
2023/10/12 12:13:47;;;;;;;17.20;11.05;;;;;;;17.29;100.00;101312.66;6215757;23;20005;-78
2023/10/12 12:16:15;;;;;;;16.08;10.63;;;;;;;17.36;100.00;101325.06;6215874;23;20827;-79
2023/10/12 12:18:41;;;;;;;17.00;10.02;;;;;;;17.38;100.00;101323.16;6215847;23;20327;-76
2023/10/12 12:21:16;;;;;;;16.45;10.18;;;;;;;17.36;100.00;101306.81;6215804;23;20052;-76
2023/10/12 12:23:41;;;;;;;16.20;10.73;;;;;;;17.43;100.00;101318.41;6215854;23;20004;-78
2023/10/12 12:26:13;;;;;;;15.57;10.50;;;;;;;17.43;100.00;101305.34;6215652;23;20055;-80
2023/10/12 12:28:44;;;;;;;17.60;9.80;;;;;;;17.30;100.00;101265.53;6215736;23;20004;-78
2023/10/12 12:31:13;;;;;;;15.07;9.32;;;;;;;17.38;100.00;101285.78;6215170;23;20019;-80
2023/10/12 12:33:43;;;;;;;14.32;9.82;;;;;;;17.26;100.00;101276.38;6215852;23;20087;-79
2023/10/12 12:36:12;;;;;;;16.40;10.40;;;;;;;17.27;100.00;101286.69;6214883;23;20393;-80
2023/10/12 12:41:06;;;;;;;17.80;10.43;;;;;;;17.14;100.00;101292.13;6214784;23;20039;-78
2023/10/12 12:43:35;;;;;;;20.27;10.63;;;;;;;17.13;100.00;101300.06;6216403;23;20004;-72
2023/10/12 12:46:00;;;;;;;13.63;10.52;;;;;;;17.17;100.00;101309.28;6214990;23;20004;-75
2023/10/12 12:48:25;;;;;;;15.98;9.88;;;;;;;17.19;100.00;101299.56;6215334;23;20131;-76
2023/10/12 12:50:51;;;;;;;20.75;10.10;;;;;;;17.16;100.00;101298.03;6215050;23;20004;-74
2023/10/12 12:53:18;;;;;;;14.48;10.15;;;;;;;17.12;100.00;101296.66;6215394;23;20005;-78
2023/10/12 12:55:46;;;;;;;14.85;9.57;;;;;;;16.94;100.00;101263.41;6215311;23;20069;-78
2023/10/12 12:58:18;;;;;;;15.52;10.18;;;;;;;17.14;100.00;101281.69;6215075;23;20369;-80
2023/10/12 13:00:48;;;;;;;19.20;10.40;;;;;;;17.15;100.00;101279.91;6215500;23;20008;-81
2023/10/12 13:03:15;;;;;;;16.00;10.90;;;;;;;17.19;100.00;101291.72;6215578;23;20005;-79
2023/10/12 13:05:41;;;;;;;13.02;10.55;;;;;;;17.04;100.00;101259.09;6215173;23;20040;-81
2023/10/12 13:08:11;;;;;;;16.92;10.68;;;;;;;17.27;100.00;101285.88;6215233;23;20004;-82
2023/10/12 13:10:37;;;;;;;15.82;10.35;;;;;;;17.33;100.00;101288.81;6215155;23;20007;-80
2023/10/12 13:13:03;;;;;;;16.52;10.50;;;;;;;17.37;100.00;101289.34;6215081;23;20004;-83
2023/10/12 13:15:31;;;;;;;13.48;10.55;;;;;;;17.37;100.00;101271.91;6214895;23;20454;-82
2023/10/12 13:17:58;;;;;;;12.90;9.52;;;;;;;17.40;100.00;101279.50;6215202;23;20013;-82
2023/10/12 13:20:29;;;;;;;14.77;10.38;;;;;;;17.39;100.00;101280.44;6215110;23;20019;-82
2023/10/12 13:22:55;;;;;;;15.47;9.70;;;;;;;17.30;100.00;101281.19;6215199;23;20012;-81
2023/10/12 13:25:20;;;;;;;16.23;10.68;;;;;;;17.12;100.00;101272.34;6215508;23;20005;-82
2023/10/12 13:27:49;;;;;;;14.75;10.98;;;;;;;16.91;100.00;101251.44;6215217;23;20008;-82
2023/10/12 13:30:15;;;;;;;17.92;11.18;;;;;;;17.03;100.00;101283.53;6214932;23;20134;-83
2023/10/12 13:32:44;;;;;;;17.10;10.65;;;;;;;16.85;100.00;101263.22;6215376;23;20036;-82
2023/10/12 13:35:31;;;;;;;19.20;10.70;;;;;;;16.92;100.00;101282.63;6214984;23;20004;-82
2023/10/12 13:38:02;;;;;;;19.45;11.75;;;;;;;16.80;100.00;101264.53;6215275;23;20074;-79
2023/10/12 13:40:29;;;;;;;17.50;11.15;;;;;;;16.79;100.00;101273.31;6214976;23;20036;-81
2023/10/12 13:43:01;;;;;;;18.70;11.27;;;;;;;16.76;100.00;101266.59;6215172;23;20028;-80